createdAt,value
2023-04-02T00:02:32.023Z,99417.22
2023-04-02T00:05:53.378Z,99419.81
2023-04-02T00:08:39.083Z,99412.66
2023-04-02T00:11:09.195Z,99434.81
2023-04-02T00:13:49.931Z,99410.75
2023-04-02T00:16:31.725Z,99433.84
2023-04-02T00:19:05.792Z,99439.25
2023-04-02T00:21:37.232Z,99451.31
2023-04-02T00:24:16.081Z,99447.53
2023-04-02T00:26:52.370Z,99452.88
2023-04-02T00:29:21.465Z,99451.00
2023-04-02T00:31:53.803Z,99440.69
2023-04-02T00:34:27.461Z,99419.16
2023-04-02T00:36:56.242Z,99430.97
2023-04-02T00:39:35.251Z,99462.16
2023-04-02T00:42:06.103Z,99456.50
2023-04-02T00:44:38.635Z,99397.50
2023-04-02T00:47:15.003Z,99470.59
2023-04-02T00:49:44.265Z,99463.28
2023-04-02T00:52:17.576Z,99460.53
2023-04-02T00:54:52.165Z,99459.91
2023-04-02T00:57:25.617Z,99467.22
2023-04-02T01:00:03.832Z,99468.41
2023-04-02T01:02:33.990Z,99443.56
2023-04-02T01:05:05.686Z,99442.84
2023-04-02T01:07:58.388Z,99465.13
2023-04-02T01:10:47.330Z,99449.34
2023-04-02T01:13:27.452Z,99475.75
2023-04-02T01:16:03.425Z,99474.31
2023-04-02T01:18:51.157Z,99484.00
2023-04-02T01:21:32.904Z,99473.97
2023-04-02T01:24:07.651Z,99484.09
2023-04-02T01:27:03.823Z,99483.28
2023-04-02T01:29:40.200Z,99493.66
2023-04-02T01:32:12.957Z,99460.56
2023-04-02T01:34:43.350Z,99492.38
2023-04-02T01:37:23.648Z,99494.41
2023-04-02T01:40:06.750Z,99499.94
2023-04-02T01:42:41.223Z,99495.22
2023-04-02T01:45:15.599Z,99507.28
2023-04-02T01:47:53.139Z,99514.19
2023-04-02T01:50:34.760Z,99478.72
2023-04-02T01:53:05.616Z,99518.47
2023-04-02T01:55:43.225Z,99504.31
2023-04-02T01:58:15.446Z,99523.88
2023-04-02T02:01:00.790Z,99530.38
2023-04-02T02:03:30.001Z,99538.50
2023-04-02T02:06:05.249Z,99496.53
2023-04-02T02:08:39.841Z,99510.31
2023-04-02T02:11:12.207Z,99542.41
2023-04-02T02:13:42.300Z,99547.00
2023-04-02T02:16:19.128Z,99547.69
2023-04-02T02:18:53.977Z,99478.03
2023-04-02T02:21:33.109Z,99518.00
2023-04-02T02:24:04.906Z,99546.88
2023-04-02T02:26:37.402Z,99551.13
2023-04-02T02:29:13.808Z,99551.72
2023-04-02T02:31:46.360Z,99527.56
2023-04-02T02:34:22.130Z,99552.44
2023-04-02T02:36:56.633Z,99554.91
2023-04-02T02:39:31.448Z,99571.31
2023-04-02T02:42:09.421Z,99568.00
2023-04-02T02:44:43.029Z,99574.25
2023-04-02T02:47:17.645Z,99576.25
2023-04-02T02:49:54.147Z,99581.91
2023-04-02T02:52:32.820Z,99576.00
2023-04-02T02:55:07.271Z,99579.06
2023-04-02T02:57:42.114Z,99581.44
2023-04-02T03:00:17.170Z,99595.84
2023-04-02T03:02:52.880Z,99589.69
2023-04-02T03:05:29.698Z,99605.28
2023-04-02T03:08:03.705Z,99607.25
2023-04-02T03:10:43.048Z,99616.97
2023-04-02T03:13:25.113Z,99607.28
2023-04-02T03:16:20.824Z,99611.41
2023-04-02T03:18:56.590Z,99593.13
2023-04-02T03:21:35.664Z,99625.34
2023-04-02T03:24:11.761Z,99601.59
2023-04-02T03:26:45.257Z,99627.47
2023-04-02T03:29:19.390Z,99635.97
2023-04-02T03:31:56.061Z,99638.19
2023-04-02T03:34:42.598Z,99643.63
2023-04-02T03:37:19.751Z,99653.88
2023-04-02T03:39:56.600Z,99650.94
2023-04-02T03:42:28.197Z,99613.63
2023-04-02T03:44:59.809Z,99662.72
2023-04-02T03:47:36.013Z,99639.13
2023-04-02T03:50:12.285Z,99664.63
2023-04-02T03:52:40.605Z,99668.84
2023-04-02T03:55:17.436Z,99658.22
2023-04-02T03:57:59.915Z,99662.09
2023-04-02T04:00:36.098Z,99658.69
2023-04-02T04:03:11.654Z,99684.19
2023-04-02T04:05:51.266Z,99684.19
2023-04-02T04:08:25.151Z,99696.22
2023-04-02T04:11:01.056Z,99692.13
2023-04-02T04:13:37.936Z,99697.41
2023-04-02T04:16:11.169Z,99701.53
2023-04-02T04:18:46.804Z,99701.16
2023-04-02T04:21:30.308Z,99683.69
2023-04-02T04:24:04.522Z,99701.53
2023-04-02T04:26:42.124Z,99718.50
2023-04-02T04:29:25.029Z,99721.59
2023-04-02T04:31:55.939Z,99725.59
2023-04-02T04:34:37.545Z,99734.56
2023-04-02T04:37:09.063Z,99730.56
2023-04-02T04:39:44.538Z,99727.81
2023-04-02T04:42:21.524Z,99737.16
2023-04-02T04:45:01.032Z,99740.31
2023-04-02T04:47:34.717Z,99743.31
2023-04-02T04:50:09.988Z,99750.84
2023-04-02T04:52:48.198Z,99755.66
2023-04-02T04:55:32.815Z,99756.66
2023-04-02T04:58:06.785Z,99764.75
2023-04-02T05:01:00.048Z,99768.78
2023-04-02T05:03:37.745Z,99767.47
2023-04-02T05:06:17.377Z,99768.78
2023-04-02T05:08:50.632Z,99780.47
2023-04-02T05:11:29.434Z,99769.91
2023-04-02T05:14:02.790Z,99749.56
2023-04-02T05:16:38.124Z,99794.91
2023-04-02T05:19:11.195Z,99794.81
2023-04-02T05:21:44.726Z,99778.34
2023-04-02T05:24:46.761Z,99793.53
2023-04-02T05:27:26.391Z,99779.97
2023-04-02T05:30:04.434Z,99795.78
2023-04-02T05:32:39.122Z,99776.31
2023-04-02T05:35:08.625Z,99804.38
2023-04-02T05:37:41.327Z,99804.09
2023-04-02T05:40:19.211Z,99817.34
2023-04-02T05:42:54.296Z,99818.78
2023-04-02T05:45:30.139Z,99839.66
2023-04-02T05:48:04.778Z,99836.47
2023-04-02T05:50:37.519Z,99839.72
2023-04-02T05:53:12.427Z,99832.06
2023-04-02T05:55:54.082Z,99841.50
2023-04-02T05:58:36.117Z,99853.72
2023-04-02T06:01:24.196Z,99847.09
2023-04-02T06:04:00.968Z,99862.88
2023-04-02T06:06:47.353Z,99863.31
2023-04-02T06:09:21.820Z,99859.38
2023-04-02T06:11:57.940Z,99827.97
2023-04-02T06:14:29.190Z,99887.06
2023-04-02T06:16:57.561Z,99877.75
2023-04-02T06:19:32.277Z,99895.34
2023-04-02T06:22:09.900Z,99912.38
2023-04-02T06:24:41.825Z,99911.66
2023-04-02T06:27:24.552Z,99891.75
2023-04-02T06:29:57.063Z,99916.34
2023-04-02T06:32:27.000Z,99901.72
2023-04-02T06:34:57.342Z,99933.25
2023-04-02T06:37:32.566Z,99928.56
2023-04-02T06:40:02.048Z,99930.44
2023-04-02T06:42:39.040Z,99945.44
2023-04-02T06:45:15.406Z,99955.75
2023-04-02T06:47:48.566Z,99939.03
2023-04-02T06:50:25.418Z,99973.88
2023-04-02T06:53:01.426Z,99981.56
2023-04-02T06:55:34.522Z,99988.47
2023-04-02T06:58:04.231Z,99978.81
2023-04-02T07:00:39.065Z,99994.56
2023-04-02T07:03:11.155Z,100002.28
2023-04-02T07:05:45.667Z,100008.09
2023-04-02T07:08:17.322Z,100022.88
2023-04-02T07:10:45.674Z,100028.41
2023-04-02T07:13:18.609Z,100013.31
2023-04-02T07:15:50.160Z,100048.22
2023-04-02T07:18:25.447Z,100023.56
2023-04-02T07:20:58.223Z,100049.56
2023-04-02T07:23:28.615Z,100062.88
2023-04-02T07:25:58.536Z,100074.94
2023-04-02T07:28:29.351Z,100042.75
2023-04-02T07:30:57.921Z,100080.75
2023-04-02T07:33:28.252Z,100076.66
2023-04-02T07:36:00.186Z,100088.94
2023-04-02T07:38:28.587Z,100102.59
2023-04-02T07:40:57.243Z,100105.28
2023-04-02T07:43:29.982Z,100116.59
2023-04-02T07:46:02.931Z,100120.97
2023-04-02T07:48:31.629Z,100085.38
2023-04-02T07:51:00.902Z,100129.72
2023-04-02T07:53:34.435Z,100084.13
2023-04-02T07:56:08.240Z,100138.81
2023-04-02T07:58:37.362Z,100127.31
2023-04-02T08:01:17.182Z,100162.66
2023-04-02T08:03:46.356Z,100164.56
2023-04-02T08:06:15.342Z,100159.78
2023-04-02T08:08:52.161Z,100170.78
2023-04-02T08:11:20.458Z,100171.56
2023-04-02T08:13:52.541Z,100186.31
2023-04-02T08:16:23.471Z,100170.97
2023-04-02T08:18:53.231Z,100186.78
2023-04-02T08:21:22.364Z,100193.41
2023-04-02T08:23:51.067Z,100192.19
2023-04-02T08:26:22.422Z,100206.28
2023-04-02T08:28:50.538Z,100216.78
2023-04-02T08:31:23.908Z,100206.44
2023-04-02T08:33:54.221Z,100203.31
2023-04-02T08:36:28.730Z,100187.03
2023-04-02T08:38:58.301Z,100168.91
2023-04-02T08:41:37.232Z,100238.69
2023-04-02T08:44:21.186Z,100231.63
2023-04-02T08:47:03.274Z,100248.06
2023-04-02T08:49:37.599Z,100258.44
2023-04-02T08:52:08.020Z,100268.22
2023-04-02T08:54:45.671Z,100235.25
2023-04-02T08:57:27.707Z,100275.41
2023-04-02T09:00:04.207Z,100275.25
2023-04-02T09:02:51.910Z,100283.19
2023-04-02T09:05:29.454Z,100241.09
2023-04-02T09:08:00.735Z,100288.59
2023-04-02T09:10:42.447Z,100304.66
2023-04-02T09:13:26.548Z,100300.53
2023-04-02T09:16:27.082Z,100287.59
2023-04-02T09:19:26.061Z,100319.66
2023-04-02T09:22:04.887Z,100305.31
2023-04-02T09:24:56.598Z,100311.56
2023-04-02T09:27:40.594Z,100315.28
2023-04-02T09:30:27.222Z,100320.34
2023-04-02T09:33:18.573Z,100336.97
2023-04-02T09:36:10.090Z,100327.19
2023-04-02T09:38:43.969Z,100320.34
2023-04-02T09:41:26.762Z,100347.81
2023-04-02T09:44:22.589Z,100308.69
2023-04-02T09:47:08.793Z,100379.47
2023-04-02T09:49:43.717Z,100345.50
2023-04-02T09:52:39.907Z,100378.44
2023-04-02T09:55:43.673Z,100363.44
2023-04-02T09:58:19.714Z,100375.72
2023-04-02T10:00:57.046Z,100381.56
2023-04-02T10:03:28.696Z,100389.66
2023-04-02T10:06:11.662Z,100375.09
2023-04-02T10:08:44.016Z,100384.88
2023-04-02T10:11:16.600Z,100365.31
2023-04-02T10:13:53.891Z,100398.00
2023-04-02T10:16:33.417Z,100392.19
2023-04-02T10:19:19.992Z,100409.03
2023-04-02T10:22:09.636Z,100412.38
2023-04-02T10:27:47.450Z,100421.16
2023-04-02T10:30:22.177Z,100411.78
2023-04-02T10:33:00.025Z,100450.53
2023-04-02T10:35:43.449Z,100394.69
2023-04-02T10:38:23.490Z,100432.84
2023-04-02T10:40:59.385Z,100431.34
2023-04-02T10:44:18.912Z,100462.78
2023-04-02T10:46:59.918Z,100445.28
2023-04-02T10:49:37.572Z,100472.41
2023-04-02T10:52:13.607Z,100469.50
2023-04-02T10:54:47.785Z,100476.16
2023-04-02T10:57:31.639Z,100471.16
2023-04-02T11:00:25.091Z,100486.16
2023-04-02T11:03:02.309Z,100487.59
2023-04-02T11:05:38.199Z,100490.34
2023-04-02T11:08:13.102Z,100491.34
2023-04-02T11:10:47.745Z,100486.59
2023-04-02T11:13:25.084Z,100487.81
2023-04-02T11:15:59.751Z,100500.56
2023-04-02T11:18:34.371Z,100504.31
2023-04-02T11:21:08.217Z,100499.47
2023-04-02T11:23:57.614Z,100521.16
2023-04-02T11:26:44.902Z,100515.75
2023-04-02T11:29:28.090Z,100527.97
2023-04-02T11:32:36.124Z,100526.03
2023-04-02T11:35:39.233Z,100533.56
2023-04-02T11:38:57.535Z,100539.56
2023-04-02T11:42:02.953Z,100556.06
2023-04-02T11:44:32.019Z,100554.88
2023-04-02T11:47:22.663Z,100528.63
2023-04-02T11:50:26.599Z,100543.59
2023-04-02T11:53:04.533Z,100563.09
2023-04-02T11:55:40.065Z,100576.84
2023-04-02T11:58:31.148Z,100585.19
2023-04-02T12:01:44.304Z,100590.34
2023-04-02T12:04:34.186Z,100588.28
2023-04-02T12:07:24.205Z,100550.75
2023-04-02T12:09:58.006Z,100593.19
2023-04-02T12:12:37.564Z,100597.38
2023-04-02T12:15:26.324Z,100595.47
2023-04-02T12:17:58.021Z,100615.16
2023-04-02T12:20:32.386Z,100609.16
2023-04-02T12:23:01.670Z,100612.28
2023-04-02T12:25:40.310Z,100604.59
2023-04-02T12:28:22.382Z,100608.66
2023-04-02T12:30:52.218Z,100627.44
2023-04-02T12:33:38.737Z,100617.63
2023-04-02T12:36:11.379Z,100629.88
2023-04-02T12:38:48.701Z,100630.13
2023-04-02T12:41:33.279Z,100645.28
2023-04-02T12:44:02.697Z,100640.28
2023-04-02T12:46:38.352Z,100659.72
2023-04-02T12:49:15.145Z,100664.41
2023-04-02T12:51:43.398Z,100677.78
2023-04-02T12:57:39.787Z,100680.75
2023-04-02T13:00:44.984Z,100687.41
2023-04-02T13:03:27.235Z,100676.44
2023-04-02T13:06:05.236Z,100648.28
2023-04-02T13:08:45.151Z,100677.28
2023-04-02T13:11:15.498Z,100693.91
2023-04-02T13:14:03.270Z,100676.84
2023-04-02T13:16:53.669Z,100680.72
2023-04-02T13:19:39.801Z,100704.28
2023-04-02T13:22:34.258Z,100704.31
2023-04-02T13:25:10.827Z,100657.88
2023-04-02T13:28:17.110Z,100698.56
2023-04-02T13:31:27.227Z,100684.97
2023-04-02T13:34:02.251Z,100724.06
2023-04-02T13:36:58.002Z,100719.38
2023-04-02T13:39:34.924Z,100709.16
2023-04-02T13:42:07.870Z,100723.53
2023-04-02T13:44:50.418Z,100723.03
2023-04-02T13:47:27.389Z,100733.94
2023-04-02T13:50:00.391Z,100727.41
2023-04-02T13:52:45.096Z,100708.94
2023-04-02T13:55:40.858Z,100738.00
2023-04-02T13:58:25.403Z,100748.84
2023-04-02T14:00:54.215Z,100743.81
2023-04-02T14:03:28.307Z,100755.13
2023-04-02T14:06:18.273Z,100758.34
2023-04-02T14:09:06.305Z,100755.78
2023-04-02T14:11:50.916Z,100764.16
2023-04-02T14:14:43.026Z,100774.84
2023-04-02T14:17:28.381Z,100784.63
2023-04-02T14:23:24.683Z,100784.03
2023-04-02T14:26:03.658Z,100793.59
2023-04-02T14:29:02.137Z,100769.72
2023-04-02T14:31:42.446Z,100799.28
2023-04-02T14:34:28.733Z,100802.75
2023-04-02T14:37:24.404Z,100807.13
2023-04-02T14:40:26.264Z,100794.09
2023-04-02T14:43:15.665Z,100820.03
2023-04-02T14:45:59.388Z,100820.22
2023-04-02T14:48:55.947Z,100800.63
2023-04-02T14:51:35.482Z,100813.84
2023-04-02T14:57:24.013Z,100840.72
2023-04-02T15:00:33.784Z,100844.53
2023-04-02T15:03:11.403Z,100782.50
2023-04-02T15:05:49.708Z,100827.28
2023-04-02T15:08:27.414Z,100836.13
2023-04-02T15:11:08.021Z,100861.03
2023-04-02T15:13:57.528Z,100851.81
2023-04-02T15:16:29.830Z,100870.06
2023-04-02T15:19:03.497Z,100870.13
2023-04-02T15:22:11.408Z,100865.50
2023-04-02T15:24:53.075Z,100880.94
2023-04-02T15:27:37.269Z,100761.53
2023-04-02T15:30:22.218Z,100878.50
2023-04-02T15:32:55.113Z,100884.56
2023-04-02T15:35:34.667Z,100879.16
2023-04-02T15:38:12.339Z,100880.44
2023-04-02T15:40:51.540Z,100866.84
2023-04-02T15:43:30.496Z,100882.50
2023-04-02T15:46:16.095Z,100894.03
2023-04-02T15:49:04.826Z,100895.56
2023-04-02T15:51:44.979Z,100899.00
2023-04-02T15:54:50.411Z,100905.06
2023-04-02T15:57:39.171Z,100901.09
2023-04-02T16:00:34.770Z,100913.09
2023-04-02T16:03:37.322Z,100898.09
2023-04-02T16:06:24.907Z,100909.13
2023-04-02T16:09:05.150Z,100930.25
2023-04-02T16:11:33.802Z,100918.88
2023-04-02T16:14:22.906Z,100922.56
2023-04-02T16:16:55.198Z,100935.78
2023-04-02T16:19:34.527Z,100935.59
2023-04-02T16:22:26.014Z,100931.28
2023-04-02T16:25:05.895Z,100931.53
2023-04-02T16:27:40.427Z,100934.41
2023-04-02T16:30:35.200Z,100944.78
2023-04-02T16:33:17.994Z,100957.94
2023-04-02T16:35:58.284Z,100936.69
2023-04-02T16:38:45.048Z,100898.72
2023-04-02T16:41:22.751Z,100976.03
2023-04-02T16:44:07.468Z,100978.50
2023-04-02T16:46:43.747Z,100977.66
2023-04-02T16:49:28.747Z,100986.16
2023-04-02T16:52:12.482Z,100979.94
2023-04-02T16:54:47.883Z,100996.38
2023-04-02T16:57:34.862Z,100981.84
2023-04-02T17:00:17.748Z,100996.63
2023-04-02T17:02:56.769Z,101003.22
2023-04-02T17:05:49.888Z,101012.25
2023-04-02T17:08:24.131Z,101028.22
2023-04-02T17:10:58.541Z,101022.09
2023-04-02T17:13:33.219Z,101018.78
2023-04-02T17:16:15.892Z,101037.94
2023-04-02T17:18:47.679Z,101030.03
2023-04-02T17:21:23.547Z,101048.25
2023-04-02T17:23:58.507Z,101047.34
2023-04-02T17:26:33.117Z,101062.78
2023-04-02T17:29:09.706Z,101069.75
2023-04-02T17:31:42.194Z,101073.28
2023-04-02T17:34:14.271Z,101084.06
2023-04-02T17:36:49.521Z,101038.06
2023-04-02T17:39:25.869Z,101083.94
2023-04-02T17:42:01.437Z,101096.75
2023-04-02T17:44:40.976Z,101091.59
2023-04-02T17:47:17.265Z,101102.66
2023-04-02T17:49:57.518Z,101083.97
2023-04-02T17:52:45.753Z,101074.44
2023-04-02T17:55:26.875Z,101105.75
2023-04-02T17:58:15.396Z,101120.22
2023-04-02T18:01:03.493Z,101080.50
2023-04-02T18:03:52.595Z,101127.97
2023-04-02T18:06:28.700Z,101137.22
2023-04-02T18:09:28.596Z,101138.78
2023-04-02T18:12:10.256Z,101135.91
2023-04-02T18:14:55.142Z,101150.22
2023-04-02T18:17:40.381Z,101094.03
2023-04-02T18:20:23.805Z,101097.22
2023-04-02T18:23:04.515Z,101124.81
2023-04-02T18:25:57.420Z,101163.38
2023-04-02T18:28:49.088Z,101157.69
2023-04-02T18:31:28.493Z,101177.88
2023-04-02T18:34:34.232Z,101164.09
2023-04-02T18:37:19.204Z,101185.78
2023-04-02T18:40:05.318Z,101149.75
2023-04-02T18:42:59.166Z,101192.00
2023-04-02T18:45:38.926Z,101201.31
2023-04-02T18:48:20.296Z,101156.31
2023-04-02T18:50:51.529Z,101194.41
2023-04-02T18:53:24.335Z,101216.63
2023-04-02T18:55:58.430Z,101167.63
2023-04-02T18:58:34.653Z,101214.44
2023-04-02T19:01:07.312Z,101219.53
2023-04-02T19:03:47.496Z,101230.81
2023-04-02T19:06:21.422Z,101181.28
2023-04-02T19:08:56.590Z,101232.66
2023-04-02T19:11:34.216Z,101236.88
2023-04-02T19:14:14.981Z,101228.28
2023-04-02T19:17:11.423Z,101233.69
2023-04-02T19:19:52.956Z,101241.59
2023-04-02T19:22:36.108Z,101237.03
2023-04-02T19:25:30.851Z,101244.78
2023-04-02T19:28:27.155Z,101249.69
2023-04-02T19:31:24.951Z,101233.00
2023-04-02T19:34:00.871Z,101251.38
2023-04-02T19:36:53.868Z,101257.09
2023-04-02T19:39:47.070Z,101244.28
2023-04-02T19:42:26.020Z,101249.34
2023-04-02T19:44:57.139Z,101271.44
2023-04-02T19:47:28.818Z,101268.41
2023-04-02T19:50:00.462Z,101271.09
2023-04-02T19:52:28.399Z,101273.94
2023-04-02T19:54:58.123Z,101272.94
2023-04-02T19:57:28.483Z,101275.00
2023-04-02T19:59:58.596Z,101278.69
2023-04-02T20:02:26.992Z,101272.63
2023-04-02T20:04:58.345Z,101267.91
2023-04-02T20:07:32.180Z,101280.88
2023-04-02T20:10:01.153Z,101283.72
2023-04-02T20:12:34.157Z,101276.16
2023-04-02T20:15:07.034Z,101285.56
2023-04-02T20:17:37.911Z,101290.78
2023-04-02T20:20:11.412Z,101297.50
2023-04-02T20:22:45.309Z,101303.91
2023-04-02T20:25:13.915Z,101300.47
2023-04-02T20:27:42.936Z,101263.38
2023-04-02T20:30:12.289Z,101244.22
2023-04-02T20:32:49.016Z,101310.03
2023-04-02T20:35:17.635Z,101311.00
2023-04-02T20:38:00.059Z,101294.63
2023-04-02T20:40:34.378Z,101319.28
2023-04-02T20:43:03.613Z,101322.47
2023-04-02T20:45:35.501Z,101316.94
2023-04-02T20:48:03.951Z,101312.44
2023-04-02T20:50:32.965Z,101335.69
2023-04-02T20:53:05.377Z,101338.16
2023-04-02T20:55:33.283Z,101334.44
2023-04-02T20:58:01.225Z,101299.47
2023-04-02T21:00:29.999Z,101324.41
2023-04-02T21:03:03.831Z,101345.22
2023-04-02T21:05:34.989Z,101347.22
2023-04-02T21:08:05.163Z,101357.34
2023-04-02T21:10:33.713Z,101358.38
2023-04-02T21:13:05.218Z,101358.56
2023-04-02T21:15:36.699Z,101355.00
2023-04-02T21:18:05.079Z,101365.06
2023-04-02T21:20:35.150Z,101358.81
2023-04-02T21:23:08.052Z,101369.50
2023-04-02T21:25:36.757Z,101342.66
2023-04-02T21:28:05.995Z,101358.19
2023-04-02T21:30:34.535Z,101366.09
2023-04-02T21:33:02.586Z,101362.03
2023-04-02T21:35:32.739Z,101371.09
2023-04-02T21:38:01.383Z,101364.72
2023-04-02T21:40:33.790Z,101370.41
2023-04-02T21:43:02.065Z,101371.31
2023-04-02T21:45:30.375Z,101371.09
2023-04-02T21:48:02.676Z,101372.19
2023-04-02T21:50:30.791Z,101372.03
2023-04-02T21:52:59.372Z,101371.16
2023-04-02T21:55:28.491Z,101369.56
2023-04-02T21:58:01.825Z,101346.50
2023-04-02T22:00:32.144Z,101366.03
2023-04-02T22:03:01.563Z,101380.91
2023-04-02T22:05:31.347Z,101367.56
2023-04-02T22:08:00.592Z,101375.66
2023-04-02T22:10:30.234Z,101376.84
2023-04-02T22:12:59.942Z,101382.72
2023-04-02T22:15:30.843Z,101377.72
2023-04-02T22:17:59.514Z,101382.28
2023-04-02T22:20:29.840Z,101375.59
2023-04-02T22:22:58.399Z,101368.50
2023-04-02T22:25:26.407Z,101373.59
2023-04-02T22:27:56.703Z,101367.06
2023-04-02T22:30:31.398Z,101361.34
2023-04-02T22:32:59.690Z,101367.41
2023-04-02T22:35:30.524Z,101376.03
2023-04-02T22:38:08.587Z,101372.31
2023-04-02T22:40:40.040Z,101383.03
2023-04-02T22:43:11.309Z,101364.19
2023-04-02T22:45:46.008Z,101384.25
2023-04-02T22:48:14.815Z,101378.72
2023-04-02T22:50:43.402Z,101378.06
2023-04-02T22:53:17.495Z,101371.84
2023-04-02T22:55:48.324Z,101354.66
2023-04-02T22:58:16.609Z,101372.69
2023-04-02T23:00:56.058Z,101379.50
2023-04-02T23:03:24.906Z,101384.91
2023-04-02T23:06:01.040Z,101373.03
2023-04-02T23:08:29.630Z,101380.59
2023-04-02T23:11:03.033Z,101384.66
2023-04-02T23:13:33.365Z,101387.97
2023-04-02T23:16:08.090Z,101388.84
2023-04-02T23:18:40.719Z,101385.63
2023-04-02T23:21:20.443Z,101391.88
2023-04-02T23:23:51.495Z,101374.81
2023-04-02T23:26:31.889Z,101362.97
2023-04-02T23:29:05.460Z,101383.38
2023-04-02T23:31:37.993Z,101379.66
2023-04-02T23:34:09.764Z,101380.13
2023-04-02T23:36:38.204Z,101322.88
2023-04-02T23:39:12.934Z,101350.81
2023-04-02T23:41:45.730Z,101379.50
2023-04-02T23:44:15.853Z,101386.56
2023-04-02T23:46:46.718Z,101373.53
2023-04-02T23:49:17.621Z,101377.38
2023-04-02T23:51:49.114Z,101364.19
2023-04-02T23:54:17.580Z,101381.75
2023-04-02T23:56:47.379Z,101376.88
2023-04-02T23:59:16.141Z,101341.72
